Coleman, Kentucky
Current Conditions -  °F | °C
As of 1:35 AM on Thursday 23 Oct 2014 (Local Time) from KPBX Reporting Station
Overcast Overcast  
Wind Chill: 43°   Ceiling: 2000
Heat Index: 45°   Visibility: 10mi
Dew Point: 42°   Wind: 5mph
Humidity: 87%   Direction: 350°N
Pressure: 30.2"   Gusts: NA
Location:  37.4798°N, 82.1599°W
Report Text: KPBX 230535Z AUTO 35004KT 10SM OVC020 07/05 A3020 RMK AO2 T00740054
Loading
Personal Weather Stations






























Interactive Weather Map
Tropical Storm Tracking
New forecast layout! Learn more

10-Day Weather Forecast

Advertisements
Track Severe Weather on mobile